Time;durP1;ratioP1;P1;durP2;ratioP2;P2;SDS_P1;SDS_P2;PMS_P1;PMS_P2;Temp;Humidity;BMP_temperature;BMP_pressure;BME280_temperature;BME280_humidity;BME280_pressure;Samples;Min_cycle;Max_cycle;Signal;HPM_P1;HPM_P2
2022/12/05 00:00:56;;;;;;;29.75;13.95;;;;;;;1.56;100.00;96431.72;5001251;28;20115;-71
2022/12/05 00:03:22;;;;;;;26.02;12.82;;;;;;;1.59;100.00;96433.81;5016788;28;20026;-69
2022/12/05 00:05:48;;;;;;;22.92;12.70;;;;;;;1.64;100.00;96432.84;4998055;28;20033;-69
2022/12/05 00:08:13;;;;;;;25.83;12.98;;;;;;;1.59;100.00;96430.31;4994952;28;20038;-68
2022/12/05 00:10:39;;;;;;;22.10;11.98;;;;;;;1.61;100.00;96436.97;4995430;28;20038;-68
2022/12/05 00:13:05;;;;;;;26.17;12.20;;;;;;;1.52;100.00;96449.66;5011934;28;20025;-67
2022/12/05 00:15:34;;;;;;;23.88;12.82;;;;;;;1.52;100.00;96463.16;5011142;28;20036;-67
2022/12/05 00:18:00;;;;;;;29.35;13.20;;;;;;;1.56;100.00;96460.63;5011469;28;20476;-66
2022/12/05 00:20:25;;;;;;;29.63;13.63;;;;;;;1.41;100.00;96462.66;5011151;28;20038;-68
2022/12/05 00:22:51;;;;;;;23.55;12.88;;;;;;;1.29;100.00;96471.34;5011225;28;20030;-67
2022/12/05 00:25:16;;;;;;;25.15;12.35;;;;;;;1.38;100.00;96468.66;4995486;28;20524;-68
2022/12/05 00:27:41;;;;;;;27.73;13.05;;;;;;;1.20;100.00;96467.03;4993451;28;20053;-67
2022/12/05 00:30:07;;;;;;;24.77;13.32;;;;;;;1.25;100.00;96466.88;5010294;28;20150;-67
2022/12/05 00:32:32;;;;;;;26.45;13.82;;;;;;;1.31;100.00;96474.53;5011157;28;20581;-67
2022/12/05 00:34:58;;;;;;;27.65;13.73;;;;;;;1.22;100.00;96462.91;5009003;28;20483;-67
2022/12/05 00:37:23;;;;;;;28.00;14.32;;;;;;;1.25;100.00;96458.78;5010581;28;20100;-67
2022/12/05 00:39:49;;;;;;;26.80;13.57;;;;;;;1.30;100.00;96461.34;4998535;28;20380;-68
2022/12/05 00:42:14;;;;;;;25.10;12.82;;;;;;;1.45;100.00;96463.63;5013705;28;20026;-68
2022/12/05 00:44:40;;;;;;;30.60;13.32;;;;;;;1.53;100.00;96460.16;5012301;28;20683;-67
2022/12/05 00:47:05;;;;;;;33.13;14.10;;;;;;;1.52;100.00;96473.97;5011277;28;20117;-68
2022/12/05 00:49:30;;;;;;;22.70;11.13;;;;;;;1.39;100.00;96481.06;4999537;28;20411;-67
2022/12/05 00:51:56;;;;;;;27.77;13.13;;;;;;;1.42;100.00;96493.13;5014787;28;20021;-67
2022/12/05 00:54:21;;;;;;;23.60;12.00;;;;;;;1.38;100.00;96495.66;5011863;28;20026;-68
2022/12/05 00:56:47;;;;;;;27.98;12.23;;;;;;;1.38;100.00;96514.53;5017860;28;20028;-66
2022/12/05 00:59:17;;;;;;;30.52;13.98;;;;;;;1.31;100.00;96525.81;5028899;28;20100;-67
2022/12/05 01:01:43;;;;;;;26.92;12.82;;;;;;;1.47;100.00;96539.66;5033719;28;20049;-66
2022/12/05 01:04:12;;;;;;;24.73;12.43;;;;;;;1.44;100.00;96545.69;5031326;28;20026;-67
2022/12/05 01:06:39;;;;;;;29.50;14.35;;;;;;;1.41;100.00;96557.09;5017565;28;20049;-67
2022/12/05 01:09:04;;;;;;;37.55;15.20;;;;;;;1.50;100.00;96562.56;5011331;28;20032;-66
2022/12/05 01:11:31;;;;;;;31.40;15.52;;;;;;;1.45;100.00;96574.28;5017849;28;20033;-67
2022/12/05 01:13:57;;;;;;;35.72;16.40;;;;;;;1.42;100.00;96569.47;5024668;28;20048;-68
2022/12/05 01:16:26;;;;;;;34.78;15.20;;;;;;;1.60;100.00;96575.75;5031514;28;20051;-67
2022/12/05 01:18:53;;;;;;;33.00;15.43;;;;;;;1.47;100.00;96563.94;5015047;28;20029;-70
2022/12/05 01:21:19;;;;;;;32.25;15.35;;;;;;;1.41;100.00;96562.50;5022586;28;20030;-66
2022/12/05 01:23:45;;;;;;;34.25;15.13;;;;;;;1.32;100.00;96559.75;5018697;28;20036;-66
2022/12/05 01:26:12;;;;;;;33.38;15.63;;;;;;;1.46;100.00;96548.88;5013946;28;20025;-67
2022/12/05 01:28:38;;;;;;;35.53;16.42;;;;;;;1.63;100.00;96558.16;5017192;28;20030;-65
2022/12/05 01:31:17;;;;;;;38.08;16.65;;;;;;;1.55;100.00;96562.41;5013062;28;20045;-66
2022/12/05 01:33:42;;;;;;;36.75;16.25;;;;;;;1.49;100.00;96564.44;5014823;28;20552;-67
2022/12/05 01:36:13;;;;;;;37.33;16.88;;;;;;;1.45;100.00;96544.59;5011961;28;20495;-67
2022/12/05 01:38:40;;;;;;;37.53;17.67;;;;;;;1.49;100.00;96540.13;5021037;28;20060;-66
2022/12/05 01:41:08;;;;;;;39.28;17.60;;;;;;;1.62;100.00;96554.66;5018834;28;20483;-66
2022/12/05 01:43:54;;;;;;;35.50;16.73;;;;;;;1.70;100.00;96551.19;5017577;28;20041;-66
2022/12/05 01:46:19;;;;;;;33.85;16.65;;;;;;;1.73;100.00;96563.28;5016420;28;20049;-68
2022/12/05 01:48:45;;;;;;;32.40;15.60;;;;;;;1.82;100.00;96576.78;5015440;28;20061;-68
2022/12/05 01:51:11;;;;;;;31.52;15.88;;;;;;;1.84;100.00;96572.69;5017348;28;20034;-68
2022/12/05 01:53:37;;;;;;;32.38;16.48;;;;;;;1.74;100.00;96564.84;5013111;28;20100;-68
2022/12/05 01:56:03;;;;;;;31.45;15.35;;;;;;;1.77;100.00;96556.13;5015387;28;20040;-69
2022/12/05 01:58:33;;;;;;;31.90;15.30;;;;;;;1.89;100.00;96552.81;5016780;28;20056;-68
2022/12/05 02:00:59;;;;;;;33.63;15.60;;;;;;;2.07;100.00;96556.34;5017228;28;20125;-68
2022/12/05 02:03:25;;;;;;;33.33;15.15;;;;;;;2.24;100.00;96566.44;5042398;28;20029;-69
2022/12/05 02:05:53;;;;;;;32.60;16.05;;;;;;;2.09;100.00;96581.19;5016535;28;20056;-67
2022/12/05 02:08:20;;;;;;;35.05;16.08;;;;;;;2.15;100.00;96588.03;5016843;28;20097;-69
2022/12/05 02:10:52;;;;;;;33.05;15.63;;;;;;;2.18;100.00;96597.38;5015101;28;20044;-69
2022/12/05 02:13:52;;;;;;;32.63;14.93;;;;;;;2.18;100.00;96597.38;5014880;28;20053;-69
2022/12/05 02:16:59;;;;;;;35.50;17.30;;;;;;;2.26;100.00;96586.59;5012325;28;20506;-67
2022/12/05 02:19:30;;;;;;;34.40;15.07;;;;;;;2.22;100.00;96590.25;4992627;28;20073;-68
2022/12/05 02:22:17;;;;;;;30.42;14.93;;;;;;;2.24;100.00;96583.44;5012572;28;20111;-67
2022/12/05 02:25:16;;;;;;;30.88;15.95;;;;;;;2.32;100.00;96570.25;5044326;28;20025;-68
2022/12/05 02:28:24;;;;;;;31.00;15.37;;;;;;;2.34;100.00;96576.94;5010855;28;20176;-68
2022/12/05 02:31:06;;;;;;;29.88;14.95;;;;;;;2.22;100.00;96577.53;5011278;28;20034;-68
2022/12/05 02:33:43;;;;;;;30.33;15.63;;;;;;;2.13;100.00;96573.25;5012496;28;20038;-68
2022/12/05 02:36:35;;;;;;;25.23;13.60;;;;;;;2.15;100.00;96574.50;5011673;28;20113;-69
2022/12/05 02:39:40;;;;;;;29.40;14.90;;;;;;;2.13;100.00;96584.06;5013111;28;20765;-69
2022/12/05 02:42:22;;;;;;;31.25;15.25;;;;;;;2.20;100.00;96574.38;5013680;28;20045;-68
2022/12/05 02:44:56;;;;;;;33.38;16.02;;;;;;;2.24;100.00;96579.94;5012872;28;20025;-69
2022/12/05 02:47:26;;;;;;;29.80;14.55;;;;;;;2.23;100.00;96586.44;5011748;28;20033;-69
2022/12/05 02:49:53;;;;;;;34.33;16.77;;;;;;;2.26;100.00;96583.91;5011851;28;20466;-69
2022/12/05 02:52:21;;;;;;;30.25;14.88;;;;;;;2.20;100.00;96587.88;5012327;28;20045;-69
2022/12/05 02:54:49;;;;;;;32.70;15.15;;;;;;;2.16;100.00;96586.09;5012080;28;20034;-69
2022/12/05 02:57:16;;;;;;;33.00;15.45;;;;;;;2.20;100.00;96581.69;5011288;28;20045;-68
2022/12/05 02:59:42;;;;;;;30.95;16.05;;;;;;;2.07;100.00;96583.38;5011925;28;20037;-69
2022/12/05 03:02:08;;;;;;;33.58;15.70;;;;;;;1.59;100.00;96582.28;5012051;28;20026;-68
2022/12/05 03:04:34;;;;;;;34.90;18.08;;;;;;;1.33;100.00;96576.75;5011899;28;20041;-69
2022/12/05 03:07:04;;;;;;;38.90;18.48;;;;;;;1.19;100.00;96579.53;5009925;28;20034;-68
2022/12/05 03:09:34;;;;;;;;;;;;;;;1.11;100.00;96581.06;5026313;28;20055;-69
2022/12/05 03:12:13;;;;;;;36.78;16.95;;;;;;;1.04;100.00;96578.00;5028783;28;19916;-68
2022/12/05 03:14:49;;;;;;;41.47;19.17;;;;;;;1.04;100.00;96585.31;5016813;28;20032;-69
2022/12/05 03:17:23;;;;;;;44.25;18.95;;;;;;;1.10;100.00;96582.19;5010978;28;20033;-68
2022/12/05 03:19:54;;;;;;;40.97;18.55;;;;;;;1.14;100.00;96593.16;5011597;28;20372;-68
2022/12/05 03:22:51;;;;;;;43.72;19.50;;;;;;;1.22;100.00;96594.31;5011347;28;20096;-69
2022/12/05 03:25:17;;;;;;;36.97;18.10;;;;;;;1.20;100.00;96589.22;5011617;28;20029;-69
2022/12/05 03:27:52;;;;;;;40.70;19.48;;;;;;;1.28;100.00;96587.69;5011006;28;20513;-70
2022/12/05 03:30:20;;;;;;;43.53;17.85;;;;;;;1.25;100.00;96588.31;5043163;28;20034;-71
2022/12/05 03:32:58;;;;;;;38.40;17.67;;;;;;;1.18;100.00;96591.44;5011390;28;20642;-71
2022/12/05 03:35:42;;;;;;;43.25;18.60;;;;;;;1.17;100.00;96591.72;5010530;28;20034;-70
2022/12/05 03:38:12;;;;;;;43.85;19.02;;;;;;;1.21;100.00;96590.03;5011327;28;20030;-70
2022/12/05 03:40:55;;;;;;;66.00;26.33;;;;;;;1.31;100.00;96597.84;5010892;28;20030;-70
2022/12/05 03:43:57;;;;;;;44.85;20.58;;;;;;;1.42;100.00;96607.25;5010997;28;20048;-69
2022/12/05 03:46:28;;;;;;;37.58;17.48;;;;;;;1.42;100.00;96607.25;5010834;28;20053;-69
2022/12/05 03:48:54;;;;;;;41.40;18.73;;;;;;;1.35;100.00;96617.69;5011320;28;20048;-70
2022/12/05 03:51:24;;;;;;;40.78;18.08;;;;;;;1.32;100.00;96602.16;5043343;28;20120;-69
2022/12/05 03:53:57;;;;;;;39.80;17.52;;;;;;;1.32;100.00;96602.16;5011838;28;20404;-69
2022/12/05 03:56:36;;;;;;;41.00;18.92;;;;;;;1.41;100.00;96605.69;5033715;28;20022;-68
2022/12/05 03:59:19;;;;;;;36.50;18.60;;;;;;;1.56;100.00;96596.38;5012965;28;20104;-70
2022/12/05 04:01:47;;;;;;;36.50;17.00;;;;;;;1.67;100.00;96597.69;5011619;28;20558;-69
2022/12/05 04:04:25;;;;;;;37.47;17.25;;;;;;;1.59;100.00;96593.06;5011089;28;20407;-70
2022/12/05 04:06:55;;;;;;;35.90;17.95;;;;;;;1.38;100.00;96600.91;5010564;28;20151;-69
2022/12/05 04:09:27;;;;;;;41.50;17.55;;;;;;;1.16;100.00;96590.16;5011411;28;20111;-70
2022/12/05 04:12:00;;;;;;;43.53;18.80;;;;;;;1.06;100.00;96593.88;5011168;28;20336;-73
2022/12/05 04:14:46;;;;;;;38.65;17.95;;;;;;;1.04;100.00;96598.78;5010970;28;20167;-71
2022/12/05 04:18:09;;;;;;;41.58;19.02;;;;;;;1.02;100.00;96582.13;5010326;28;20404;-69
2022/12/05 04:23:24;;;;;;;42.80;19.50;;;;;;;0.97;100.00;96590.34;4950437;29;20086;-70
2022/12/05 04:26:09;;;;;;;44.42;19.58;;;;;;;0.97;100.00;96593.03;4988378;28;20112;-70
2022/12/05 04:28:57;;;;;;;41.45;19.88;;;;;;;1.00;100.00;96584.34;5014930;28;20026;-70
2022/12/05 04:31:38;;;;;;;47.72;20.35;;;;;;;1.05;100.00;96598.50;5014698;28;20038;-71
2022/12/05 04:34:06;;;;;;;40.72;18.55;;;;;;;1.04;100.00;96591.50;5015662;28;20513;-72
2022/12/05 04:36:37;;;;;;;44.25;19.15;;;;;;;1.07;100.00;96590.09;5014908;28;20038;-67
2022/12/05 04:39:12;;;;;;;45.92;21.25;;;;;;;1.10;100.00;96609.16;5015852;28;20061;-71
2022/12/05 04:41:59;;;;;;;50.13;19.85;;;;;;;1.32;100.00;96602.16;5014995;28;20030;-69
2022/12/05 04:44:29;;;;;;;40.55;18.95;;;;;;;1.25;100.00;96601.78;5014859;28;20545;-67
2022/12/05 04:46:58;;;;;;;41.97;19.02;;;;;;;1.20;100.00;96608.09;5013856;28;20596;-69
2022/12/05 04:49:25;;;;;;;;;;;;;;;1.21;100.00;96607.00;5015012;28;20093;-70
2022/12/05 04:51:56;;;;;;;41.25;17.45;;;;;;;1.20;100.00;96608.09;5014662;28;19910;-70
2022/12/05 04:54:25;;;;;;;40.75;20.23;;;;;;;1.21;100.00;96601.63;4997624;28;20034;-70
2022/12/05 04:56:56;;;;;;;38.72;18.23;;;;;;;1.39;100.00;96629.50;5014572;28;20088;-68
2022/12/05 04:59:21;;;;;;;37.17;18.10;;;;;;;1.48;100.00;96616.06;5014559;28;20030;-67
2022/12/05 05:01:55;;;;;;;40.83;18.85;;;;;;;1.51;100.00;96610.84;5014266;28;20036;-68
2022/12/05 05:04:28;;;;;;;43.10;17.42;;;;;;;1.71;100.00;96601.41;5014755;28;20076;-68
2022/12/05 05:06:54;;;;;;;35.00;17.23;;;;;;;1.82;100.00;96609.19;5013734;28;20522;-67
2022/12/05 05:09:19;;;;;;;32.03;16.55;;;;;;;1.65;100.00;96599.91;5014501;28;20088;-68
2022/12/05 05:11:45;;;;;;;33.80;16.17;;;;;;;1.91;100.00;96602.75;5014859;28;20042;-67
2022/12/05 05:14:10;;;;;;;33.92;16.15;;;;;;;1.86;100.00;96602.88;5016895;28;20057;-68
2022/12/05 05:16:39;;;;;;;35.30;17.35;;;;;;;1.59;100.00;96606.56;5014867;28;20065;-68
2022/12/05 05:19:06;;;;;;;34.58;16.90;;;;;;;1.61;100.00;96623.25;5017101;28;20571;-68
2022/12/05 05:21:37;;;;;;;37.47;18.17;;;;;;;1.53;100.00;96621.28;5040935;28;20038;-69
2022/12/05 05:24:04;;;;;;;33.80;16.95;;;;;;;1.52;100.00;96617.81;5025641;28;20498;-69
2022/12/05 05:26:32;;;;;;;33.90;16.92;;;;;;;1.57;100.00;96621.47;5019062;28;20109;-70
2022/12/05 05:28:57;;;;;;;33.53;16.30;;;;;;;1.57;100.00;96632.28;5014648;28;20391;-72
2022/12/05 05:31:23;;;;;;;37.95;18.98;;;;;;;1.53;100.00;96632.91;5014424;28;20026;-71
2022/12/05 05:33:52;;;;;;;35.20;16.42;;;;;;;1.53;100.00;96626.69;5012964;28;20029;-71
2022/12/05 05:36:18;;;;;;;37.42;17.50;;;;;;;1.59;100.00;96635.47;5013755;28;20034;-71
2022/12/05 05:38:46;;;;;;;31.63;15.90;;;;;;;1.70;100.00;96637.59;5014279;28;20033;-72
2022/12/05 05:41:20;;;;;;;33.78;15.98;;;;;;;1.75;100.00;96635.84;5014071;28;20100;-71
2022/12/05 05:43:46;;;;;;;35.80;16.85;;;;;;;1.87;100.00;96636.06;5014632;28;20042;-70
2022/12/05 05:46:13;;;;;;;32.50;16.30;;;;;;;1.97;100.00;96643.13;5013769;28;20044;-70
2022/12/05 05:48:39;;;;;;;29.38;16.40;;;;;;;2.04;100.00;96643.47;5014235;28;20030;-69
2022/12/05 05:51:06;;;;;;;30.38;15.65;;;;;;;2.14;100.00;96656.66;5015156;28;20034;-68
2022/12/05 05:53:32;;;;;;;33.25;16.55;;;;;;;2.22;100.00;96657.81;5016275;28;20034;-70
2022/12/05 05:56:04;;;;;;;38.15;19.17;;;;;;;2.24;100.00;96666.41;5015013;28;20100;-68
2022/12/05 05:58:30;;;;;;;35.15;17.50;;;;;;;2.22;100.00;96665.94;5014326;28;20042;-70
2022/12/05 06:01:09;;;;;;;30.83;16.27;;;;;;;2.12;100.00;96677.00;5026819;28;20081;-66
2022/12/05 06:03:35;;;;;;;33.92;16.30;;;;;;;2.12;100.00;96680.50;5031531;28;20030;-68
2022/12/05 06:06:04;;;;;;;32.63;15.52;;;;;;;2.15;100.00;96687.22;5013983;28;20040;-69
2022/12/05 06:08:34;;;;;;;29.60;15.98;;;;;;;2.20;100.00;96679.75;5013938;28;20038;-69
2022/12/05 06:11:08;;;;;;;34.20;15.80;;;;;;;2.25;100.00;96682.31;5013326;28;20029;-71
2022/12/05 06:13:33;;;;;;;32.17;16.27;;;;;;;2.27;100.00;96690.91;5013364;28;20502;-67
2022/12/05 06:15:59;;;;;;;32.25;15.85;;;;;;;2.20;100.00;96703.28;5014382;28;20038;-69
2022/12/05 06:18:24;;;;;;;33.00;16.17;;;;;;;2.10;100.00;96701.63;5015244;28;20037;-70
2022/12/05 06:20:52;;;;;;;30.67;15.88;;;;;;;2.10;100.00;96710.53;5015918;28;20033;-69
2022/12/05 06:23:17;;;;;;;30.33;15.82;;;;;;;2.16;100.00;96707.69;5014321;28;20034;-70
2022/12/05 06:25:51;;;;;;;33.47;16.73;;;;;;;2.22;100.00;96711.88;5012432;28;20589;-69
2022/12/05 06:28:17;;;;;;;30.48;16.00;;;;;;;2.19;100.00;96712.50;5014682;28;20030;-67
2022/12/05 06:30:43;;;;;;;32.67;16.45;;;;;;;2.29;100.00;96713.00;5013387;28;20037;-66
2022/12/05 06:33:08;;;;;;;30.70;16.40;;;;;;;2.36;100.00;96703.63;5013244;28;20041;-67
2022/12/05 06:35:33;;;;;;;29.90;15.95;;;;;;;2.36;100.00;96711.75;5012259;28;20041;-68
2022/12/05 06:37:59;;;;;;;32.58;16.38;;;;;;;2.17;100.00;96712.78;5012580;28;20049;-66
2022/12/05 06:40:24;;;;;;;32.30;16.92;;;;;;;2.20;100.00;96719.50;5012307;28;20058;-67
2022/12/05 06:42:49;;;;;;;30.38;16.27;;;;;;;2.13;100.00;96724.56;5012294;28;20479;-66
2022/12/05 06:45:16;;;;;;;37.08;16.50;;;;;;;1.76;100.00;96716.56;5012326;28;20583;-65
2022/12/05 06:47:42;;;;;;;36.08;17.85;;;;;;;1.71;100.00;96727.47;5011614;28;20033;-66
2022/12/05 06:50:07;;;;;;;31.33;16.77;;;;;;;1.82;100.00;96730.72;5011797;28;20108;-66
2022/12/05 06:52:33;;;;;;;34.78;17.70;;;;;;;1.77;100.00;96731.66;5012408;28;20493;-65
2022/12/05 06:54:58;;;;;;;39.55;18.85;;;;;;;1.72;100.00;96734.50;5011948;28;20034;-66
2022/12/05 06:57:24;;;;;;;35.67;17.25;;;;;;;1.67;100.00;96748.91;5011315;28;20045;-66
2022/12/05 06:59:49;;;;;;;39.10;16.98;;;;;;;1.78;100.00;96756.75;5012020;28;20168;-67
2022/12/05 07:02:15;;;;;;;41.83;18.80;;;;;;;2.01;100.00;96757.53;5011870;28;20034;-66
2022/12/05 07:04:40;;;;;;;44.70;20.80;;;;;;;2.09;100.00;96760.28;5012121;28;20037;-65
2022/12/05 07:07:06;;;;;;;45.88;18.55;;;;;;;2.21;100.00;96761.63;5011145;28;20034;-66
2022/12/05 07:12:17;;;;;;;34.92;17.58;;;;;;;2.43;100.00;96764.28;5011993;28;20030;-66
2022/12/05 07:14:44;;;;;;;37.50;18.67;;;;;;;2.47;100.00;96767.94;5011757;28;20543;-67
2022/12/05 07:17:09;;;;;;;36.90;18.33;;;;;;;2.51;100.00;96767.31;5009726;28;20034;-67
2022/12/05 07:19:35;;;;;;;32.35;17.35;;;;;;;2.43;100.00;96769.69;5010714;28;20041;-67
2022/12/05 07:22:00;;;;;;;35.08;18.50;;;;;;;2.55;100.00;96770.97;5011826;28;20041;-67
2022/12/05 07:24:26;;;;;;;34.20;17.27;;;;;;;2.56;100.00;96786.91;5011724;28;20466;-67
2022/12/05 07:26:51;;;;;;;34.22;17.17;;;;;;;2.48;100.00;96783.06;5010821;28;20065;-66
2022/12/05 07:29:17;;;;;;;35.58;17.17;;;;;;;2.35;100.00;96793.97;5014019;28;20081;-67
2022/12/05 07:31:43;;;;;;;32.85;16.77;;;;;;;2.30;100.00;96797.59;5020102;28;20055;-67
2022/12/05 07:34:09;;;;;;;29.45;16.00;;;;;;;2.31;100.00;96795.69;5018314;28;20069;-67
2022/12/05 07:36:34;;;;;;;28.98;15.57;;;;;;;2.40;100.00;96796.53;5010797;28;20152;-67
2022/12/05 07:39:00;;;;;;;33.33;16.02;;;;;;;2.44;100.00;96792.09;5011088;28;20034;-66
2022/12/05 07:41:28;;;;;;;31.63;16.85;;;;;;;2.48;100.00;96793.06;5012597;28;20823;-67
2022/12/05 07:43:57;;;;;;;28.20;15.07;;;;;;;2.34;100.00;96801.28;5026323;28;20065;-67
2022/12/05 07:46:25;;;;;;;31.53;16.10;;;;;;;2.35;100.00;96794.75;5010574;28;20472;-66
2022/12/05 07:48:51;;;;;;;32.63;17.65;;;;;;;2.49;100.00;96797.38;5011478;28;20045;-65
2022/12/05 07:51:17;;;;;;;31.25;16.45;;;;;;;2.41;100.00;96804.34;5010561;28;20030;-65
2022/12/05 07:53:43;;;;;;;30.90;16.58;;;;;;;2.52;100.00;96804.88;5011425;28;20494;-65
2022/12/05 07:56:13;;;;;;;29.85;13.65;;;;;;;2.73;100.00;96798.88;5010819;28;20037;-65
2022/12/05 07:58:39;;;;;;;25.33;12.95;;;;;;;2.85;100.00;96808.00;5012037;28;20442;-64
2022/12/05 08:01:10;;;;;;;21.65;10.98;;;;;;;2.94;100.00;96813.44;5014355;28;20092;-68
2022/12/05 08:03:36;;;;;;;19.48;10.07;;;;;;;3.06;100.00;96815.53;5015260;28;20037;-66
2022/12/05 08:06:15;;;;;;;17.73;9.25;;;;;;;3.21;100.00;96822.41;5017792;28;20033;-66
2022/12/05 08:08:41;;;;;;;17.75;9.15;;;;;;;3.37;100.00;96820.84;5035749;28;20034;-68
2022/12/05 08:11:13;;;;;;;14.15;7.53;;;;;;;3.43;100.00;96829.63;5016011;28;20488;-66
2022/12/05 08:13:39;;;;;;;10.63;6.78;;;;;;;3.47;100.00;96829.78;5009665;28;20037;-67
2022/12/05 08:16:08;;;;;;;13.50;6.95;;;;;;;3.46;100.00;96837.09;5005445;28;20479;-66
2022/12/05 08:18:34;;;;;;;11.75;6.95;;;;;;;3.43;100.00;96841.22;5004824;28;20034;-66
2022/12/05 08:21:04;;;;;;;12.75;6.53;;;;;;;3.42;100.00;96839.66;5003987;28;20072;-66
2022/12/05 08:23:31;;;;;;;11.57;6.53;;;;;;;3.49;100.00;96844.59;5006488;28;20406;-66
2022/12/05 08:26:11;;;;;;;10.25;5.78;;;;;;;3.59;100.00;96846.19;5003763;28;20479;-66
2022/12/05 08:28:36;;;;;;;;;;;;;;;3.71;100.00;96848.25;5003806;28;20058;-66
2022/12/05 08:31:15;;;;;;;7.43;4.03;;;;;;;3.80;100.00;96857.22;5039035;28;20386;-65
2022/12/05 08:33:41;;;;;;;9.13;5.17;;;;;;;3.67;100.00;96841.91;4989527;28;20050;-66
2022/12/05 08:36:10;;;;;;;16.17;7.45;;;;;;;3.77;100.00;96855.13;4986070;28;20046;-67
2022/12/05 08:38:36;;;;;;;9.60;4.47;;;;;;;3.73;100.00;96849.56;5005957;28;20486;-66
2022/12/05 08:41:07;;;;;;;8.60;5.13;;;;;;;3.87;100.00;96860.25;5004312;28;20046;-65
2022/12/05 08:43:33;;;;;;;6.78;3.75;;;;;;;3.92;100.00;96864.69;5004465;28;20136;-66
2022/12/05 08:46:00;;;;;;;5.10;3.20;;;;;;;3.88;100.00;96861.81;5006779;28;20072;-66
2022/12/05 08:48:27;;;;;;;10.18;3.67;;;;;;;3.82;100.00;96858.47;4998831;28;20041;-66
2022/12/05 08:50:53;;;;;;;5.70;3.83;;;;;;;3.88;100.00;96864.53;5004948;28;20034;-65
2022/12/05 08:53:18;;;;;;;11.13;6.88;;;;;;;3.92;100.00;96856.56;4998835;28;20044;-66
2022/12/05 08:55:46;;;;;;;28.98;11.95;;;;;;;3.98;100.00;96861.50;4993825;28;20034;-66
2022/12/05 08:58:12;;;;;;;18.27;9.30;;;;;;;4.02;100.00;96862.47;5000275;28;20046;-66
2022/12/05 09:00:39;;;;;;;22.13;9.23;;;;;;;4.08;100.00;96865.81;5003841;28;20128;-66
2022/12/05 09:03:04;;;;;;;15.63;7.47;;;;;;;4.11;100.00;96856.25;5000114;28;20061;-67
2022/12/05 09:05:30;;;;;;;12.85;7.03;;;;;;;4.21;100.00;96845.06;4986666;28;20054;-67
2022/12/05 09:07:56;;;;;;;20.30;10.10;;;;;;;3.93;100.00;96842.69;4999462;28;20070;-67
2022/12/05 09:10:22;;;;;;;52.15;46.05;;;;;;;3.76;100.00;96846.22;4995967;28;20542;-67
2022/12/05 09:12:49;;;;;;;8.65;5.78;;;;;;;3.61;100.00;96849.38;5002206;28;20034;-67
2022/12/05 09:15:14;;;;;;;9.70;5.00;;;;;;;3.56;100.00;96857.66;4996501;28;20427;-67
2022/12/05 09:17:40;;;;;;;13.80;5.78;;;;;;;3.78;100.00;96854.00;4999583;28;20121;-67
2022/12/05 09:20:06;;;;;;;8.05;4.35;;;;;;;3.97;100.00;96853.69;4998136;28;20034;-66
2022/12/05 09:22:32;;;;;;;8.07;3.97;;;;;;;3.75;100.00;96860.88;5003751;28;20049;-66
2022/12/05 09:24:58;;;;;;;6.45;4.13;;;;;;;3.79;100.00;96864.53;5001070;28;20042;-67
2022/12/05 09:27:23;;;;;;;8.70;4.05;;;;;;;3.84;100.00;96871.72;4996432;28;20797;-65
2022/12/05 09:29:49;;;;;;;6.03;3.50;;;;;;;3.93;100.00;96874.44;5001153;28;20046;-67
2022/12/05 09:32:14;;;;;;;7.40;4.90;;;;;;;3.96;100.00;96879.19;4995917;28;20041;-67
2022/12/05 09:34:39;;;;;;;7.05;4.43;;;;;;;4.00;100.00;96878.25;5003759;28;20050;-67
2022/12/05 09:37:06;;;;;;;7.85;4.68;;;;;;;3.92;100.00;96881.75;4997042;28;20041;-65
2022/12/05 09:39:32;;;;;;;10.95;7.57;;;;;;;3.62;100.00;96883.50;5004338;28;20060;-66
2022/12/05 09:42:19;;;;;;;7.00;4.50;;;;;;;3.51;100.00;96882.19;5003995;28;20049;-66
2022/12/05 09:45:13;;;;;;;9.32;5.22;;;;;;;3.38;100.00;96868.47;4990030;28;20046;-67
2022/12/05 09:47:50;;;;;;;17.42;15.68;;;;;;;3.37;100.00;96866.88;4995298;28;20499;-66
2022/12/05 09:50:28;;;;;;;5.07;3.45;;;;;;;3.25;100.00;96856.66;4994153;28;20483;-66
2022/12/05 09:53:03;;;;;;;7.50;3.70;;;;;;;3.27;100.00;96842.00;4991143;28;20498;-67
2022/12/05 09:55:36;;;;;;;8.77;3.95;;;;;;;3.34;100.00;96845.84;4984679;28;20144;-67
2022/12/05 09:58:05;;;;;;;12.95;6.63;;;;;;;3.73;100.00;96849.56;4993851;28;20073;-67
2022/12/05 10:00:32;;;;;;;8.38;4.65;;;;;;;3.98;100.00;96847.97;5000638;28;20046;-66
2022/12/05 10:03:37;;;;;;;10.55;6.03;;;;;;;4.17;100.00;96854.94;5002601;28;20105;-66
2022/12/05 10:06:18;;;;;;;5.72;2.30;;;;;;;4.25;100.00;96864.19;4999494;28;20614;-66
2022/12/05 10:09:11;;;;;;;4.07;2.10;;;;;;;4.09;100.00;96875.53;5003855;28;20149;-66
2022/12/05 10:11:52;;;;;;;4.05;2.50;;;;;;;3.95;100.00;96875.69;5010359;28;20038;-67
2022/12/05 10:14:57;;;;;;;15.52;7.40;;;;;;;4.16;100.00;96873.13;5009031;28;20037;-66
2022/12/05 10:17:37;;;;;;;7.60;3.08;;;;;;;4.06;100.00;96865.31;4984420;28;20054;-67
2022/12/05 10:20:43;;;;;;;3.17;2.20;;;;;;;4.07;100.00;96868.81;5001789;28;20049;-67
2022/12/05 10:23:20;;;;;;;4.95;2.55;;;;;;;4.03;100.00;96865.97;4998788;28;20046;-66
2022/12/05 10:25:50;;;;;;;2.78;2.00;;;;;;;4.05;100.00;96858.28;5002108;28;20041;-66
2022/12/05 10:28:42;;;;;;;5.50;2.55;;;;;;;4.15;100.00;96854.47;4995750;28;20049;-67
2022/12/05 10:31:13;;;;;;;2.83;2.33;;;;;;;4.21;100.00;96851.28;4977744;28;20044;-66
2022/12/05 10:33:49;;;;;;;2.85;2.00;;;;;;;4.39;100.00;96843.09;5004463;28;20066;-66
2022/12/05 10:36:14;;;;;;;3.30;2.10;;;;;;;4.46;100.00;96848.81;4997076;28;20050;-67
2022/12/05 10:38:43;;;;;;;2.40;1.65;;;;;;;4.54;100.00;96850.75;5005091;28;20449;-67
2022/12/05 10:41:14;;;;;;;3.38;1.90;;;;;;;4.51;100.00;96843.22;4999558;28;20395;-67
2022/12/05 10:43:44;;;;;;;3.00;2.40;;;;;;;4.44;100.00;96842.16;5001994;28;20065;-66
2022/12/05 10:46:12;;;;;;;4.30;2.40;;;;;;;4.29;100.00;96843.47;4993250;28;20034;-67
2022/12/05 10:48:40;;;;;;;4.68;3.13;;;;;;;4.40;100.00;96842.00;5005405;28;20049;-66
2022/12/05 10:51:11;;;;;;;4.93;2.83;;;;;;;4.42;100.00;96842.47;4999959;28;20048;-66
2022/12/05 10:53:49;;;;;;;4.68;3.17;;;;;;;4.46;100.00;96848.03;5005673;28;20190;-66
2022/12/05 10:56:37;;;;;;;5.78;4.30;;;;;;;4.31;100.00;96852.84;4995059;28;20045;-66
2022/12/05 10:59:04;;;;;;;5.28;3.50;;;;;;;4.37;100.00;96854.28;4998700;28;20038;-66
2022/12/05 11:01:34;;;;;;;8.35;4.32;;;;;;;4.15;100.00;96849.06;5027437;28;20442;-71
2022/12/05 11:04:17;;;;;;;4.50;2.80;;;;;;;3.80;100.00;96841.75;4994390;28;20142;-66
2022/12/05 11:06:50;;;;;;;5.60;3.90;;;;;;;3.67;100.00;96837.25;4988397;28;20089;-67
2022/12/05 11:09:19;;;;;;;4.53;2.55;;;;;;;3.74;100.00;96832.16;5000683;28;20042;-66
2022/12/05 11:12:03;;;;;;;2.93;2.43;;;;;;;3.73;100.00;96838.72;5014344;28;20060;-67
2022/12/05 11:14:30;;;;;;;5.05;3.03;;;;;;;4.02;100.00;96832.66;5008024;28;20041;-67
2022/12/05 11:16:57;;;;;;;5.15;2.95;;;;;;;3.98;100.00;96831.69;5016044;28;20111;-66
2022/12/05 11:19:37;;;;;;;4.50;3.00;;;;;;;3.65;100.00;96825.97;5006484;28;20049;-67
2022/12/05 11:22:06;;;;;;;;;;;;;;;3.68;100.00;96822.63;5004217;28;20052;-67
2022/12/05 11:24:41;;;;;;;5.03;3.20;;;;;;;3.64;100.00;96816.25;5003887;28;20294;-67
2022/12/05 11:27:31;;;;;;;5.65;3.03;;;;;;;3.74;100.00;96825.97;4982268;28;20038;-67
2022/12/05 11:30:11;;;;;;;4.75;3.08;;;;;;;3.74;100.00;96826.75;5001720;28;20034;-66
2022/12/05 11:32:37;;;;;;;8.43;5.38;;;;;;;4.02;100.00;96827.22;4994564;28;20033;-66
2022/12/05 11:35:12;;;;;;;5.22;3.10;;;;;;;3.99;100.00;96816.22;4990696;28;20503;-66
2022/12/05 11:38:00;;;;;;;5.70;3.17;;;;;;;3.71;100.00;96811.16;4990439;28;20101;-66
2022/12/05 11:40:46;;;;;;;4.38;2.67;;;;;;;3.74;100.00;96815.91;4976491;28;20118;-67
2022/12/05 11:43:37;;;;;;;8.95;3.10;;;;;;;3.89;100.00;96809.22;5002286;28;20050;-67
2022/12/05 11:46:17;;;;;;;6.85;3.60;;;;;;;3.84;100.00;96801.25;5014946;28;20069;-69